sensor_id;sensor_type;location;lat;lon;timestamp;P1;durP1;ratioP1;P2;durP2;ratioP2
10226;SDS011;15634;48.766;2.272;2022-12-07T00:00:50;47.80;;;21.85;;
10226;SDS011;15634;48.766;2.272;2022-12-07T00:03:18;46.92;;;22.33;;
10226;SDS011;15634;48.766;2.272;2022-12-07T00:05:44;51.55;;;23.75;;
10226;SDS011;15634;48.766;2.272;2022-12-07T00:08:11;52.72;;;24.08;;
10226;SDS011;15634;48.766;2.272;2022-12-07T00:10:38;50.20;;;23.85;;
10226;SDS011;15634;48.766;2.272;2022-12-07T00:13:04;52.10;;;24.67;;
10226;SDS011;15634;48.766;2.272;2022-12-07T00:15:33;54.83;;;22.90;;
10226;SDS011;15634;48.766;2.272;2022-12-07T00:17:59;52.92;;;25.08;;
10226;SDS011;15634;48.766;2.272;2022-12-07T00:20:27;52.55;;;24.70;;
10226;SDS011;15634;48.766;2.272;2022-12-07T00:22:55;54.63;;;25.20;;
10226;SDS011;15634;48.766;2.272;2022-12-07T00:25:21;50.10;;;23.85;;
10226;SDS011;15634;48.766;2.272;2022-12-07T00:27:48;44.47;;;22.65;;
10226;SDS011;15634;48.766;2.272;2022-12-07T00:30:15;49.50;;;23.65;;
10226;SDS011;15634;48.766;2.272;2022-12-07T00:32:41;44.92;;;23.25;;
10226;SDS011;15634;48.766;2.272;2022-12-07T00:35:08;49.25;;;23.73;;
10226;SDS011;15634;48.766;2.272;2022-12-07T00:37:36;46.25;;;22.98;;
10226;SDS011;15634;48.766;2.272;2022-12-07T00:40:03;51.03;;;24.40;;
10226;SDS011;15634;48.766;2.272;2022-12-07T00:42:30;47.08;;;23.65;;
10226;SDS011;15634;48.766;2.272;2022-12-07T00:44:57;49.92;;;23.50;;
10226;SDS011;15634;48.766;2.272;2022-12-07T00:47:23;46.53;;;24.05;;
10226;SDS011;15634;48.766;2.272;2022-12-07T00:49:50;51.42;;;23.45;;
10226;SDS011;15634;48.766;2.272;2022-12-07T00:52:16;49.30;;;23.60;;
10226;SDS011;15634;48.766;2.272;2022-12-07T00:54:44;53.55;;;24.33;;
10226;SDS011;15634;48.766;2.272;2022-12-07T00:57:11;50.45;;;24.75;;
10226;SDS011;15634;48.766;2.272;2022-12-07T00:59:37;54.72;;;24.17;;
10226;SDS011;15634;48.766;2.272;2022-12-07T01:02:04;52.78;;;24.35;;
10226;SDS011;15634;48.766;2.272;2022-12-07T01:04:32;51.88;;;24.98;;
10226;SDS011;15634;48.766;2.272;2022-12-07T01:06:59;60.05;;;25.38;;
10226;SDS011;15634;48.766;2.272;2022-12-07T01:09:26;57.03;;;24.70;;
10226;SDS011;15634;48.766;2.272;2022-12-07T01:11:54;51.80;;;24.42;;
10226;SDS011;15634;48.766;2.272;2022-12-07T01:14:20;51.60;;;24.85;;
10226;SDS011;15634;48.766;2.272;2022-12-07T01:16:47;57.60;;;25.27;;
10226;SDS011;15634;48.766;2.272;2022-12-07T01:19:13;57.25;;;24.75;;
10226;SDS011;15634;48.766;2.272;2022-12-07T01:21:40;53.85;;;24.20;;
10226;SDS011;15634;48.766;2.272;2022-12-07T01:24:08;54.55;;;25.05;;
10226;SDS011;15634;48.766;2.272;2022-12-07T01:26:35;52.08;;;24.63;;
10226;SDS011;15634;48.766;2.272;2022-12-07T01:29:04;54.13;;;23.63;;
10226;SDS011;15634;48.766;2.272;2022-12-07T01:31:30;55.95;;;23.70;;
10226;SDS011;15634;48.766;2.272;2022-12-07T01:33:58;57.25;;;25.17;;
10226;SDS011;15634;48.766;2.272;2022-12-07T01:36:25;55.28;;;25.00;;
10226;SDS011;15634;48.766;2.272;2022-12-07T01:38:54;59.60;;;25.10;;
10226;SDS011;15634;48.766;2.272;2022-12-07T01:41:23;57.30;;;23.83;;
10226;SDS011;15634;48.766;2.272;2022-12-07T01:44:12;56.70;;;25.33;;
10226;SDS011;15634;48.766;2.272;2022-12-07T01:46:41;60.97;;;25.33;;
10226;SDS011;15634;48.766;2.272;2022-12-07T01:49:09;56.53;;;25.52;;
10226;SDS011;15634;48.766;2.272;2022-12-07T01:51:36;57.00;;;24.40;;
10226;SDS011;15634;48.766;2.272;2022-12-07T01:54:04;59.63;;;24.50;;
10226;SDS011;15634;48.766;2.272;2022-12-07T01:56:30;54.10;;;24.30;;
10226;SDS011;15634;48.766;2.272;2022-12-07T01:58:59;56.50;;;24.55;;
10226;SDS011;15634;48.766;2.272;2022-12-07T02:01:27;57.72;;;25.08;;
10226;SDS011;15634;48.766;2.272;2022-12-07T02:03:54;49.13;;;24.08;;
10226;SDS011;15634;48.766;2.272;2022-12-07T02:06:22;58.25;;;25.85;;
10226;SDS011;15634;48.766;2.272;2022-12-07T02:08:51;59.13;;;22.65;;
10226;SDS011;15634;48.766;2.272;2022-12-07T02:11:18;48.65;;;22.95;;
10226;SDS011;15634;48.766;2.272;2022-12-07T02:13:45;53.40;;;22.60;;
10226;SDS011;15634;48.766;2.272;2022-12-07T02:16:15;43.92;;;21.30;;
10226;SDS011;15634;48.766;2.272;2022-12-07T02:18:52;50.53;;;21.17;;
10226;SDS011;15634;48.766;2.272;2022-12-07T02:21:26;46.15;;;20.92;;
10226;SDS011;15634;48.766;2.272;2022-12-07T02:24:05;47.80;;;22.08;;
10226;SDS011;15634;48.766;2.272;2022-12-07T02:29:49;45.38;;;21.20;;
10226;SDS011;15634;48.766;2.272;2022-12-07T02:32:22;39.25;;;19.20;;
10226;SDS011;15634;48.766;2.272;2022-12-07T02:34:51;43.45;;;20.00;;
10226;SDS011;15634;48.766;2.272;2022-12-07T02:37:25;38.28;;;17.90;;
10226;SDS011;15634;48.766;2.272;2022-12-07T02:39:59;41.45;;;19.23;;
10226;SDS011;15634;48.766;2.272;2022-12-07T02:42:29;38.83;;;18.13;;
10226;SDS011;15634;48.766;2.272;2022-12-07T02:45:00;37.00;;;19.63;;
10226;SDS011;15634;48.766;2.272;2022-12-07T02:47:28;41.03;;;19.15;;
10226;SDS011;15634;48.766;2.272;2022-12-07T02:49:55;36.88;;;18.17;;
10226;SDS011;15634;48.766;2.272;2022-12-07T02:52:22;35.85;;;18.10;;
10226;SDS011;15634;48.766;2.272;2022-12-07T02:54:48;42.05;;;18.73;;
10226;SDS011;15634;48.766;2.272;2022-12-07T02:57:21;35.65;;;17.50;;
10226;SDS011;15634;48.766;2.272;2022-12-07T02:59:57;38.83;;;18.90;;
10226;SDS011;15634;48.766;2.272;2022-12-07T03:02:31;36.20;;;18.73;;
10226;SDS011;15634;48.766;2.272;2022-12-07T03:05:07;36.22;;;18.55;;
10226;SDS011;15634;48.766;2.272;2022-12-07T03:07:40;33.38;;;17.52;;
10226;SDS011;15634;48.766;2.272;2022-12-07T03:10:14;36.83;;;17.45;;
10226;SDS011;15634;48.766;2.272;2022-12-07T03:12:45;32.67;;;16.13;;
10226;SDS011;15634;48.766;2.272;2022-12-07T03:15:18;32.50;;;16.15;;
10226;SDS011;15634;48.766;2.272;2022-12-07T03:20:15;33.47;;;16.45;;
10226;SDS011;15634;48.766;2.272;2022-12-07T03:22:44;34.83;;;16.45;;
10226;SDS011;15634;48.766;2.272;2022-12-07T03:25:13;30.60;;;16.25;;
10226;SDS011;15634;48.766;2.272;2022-12-07T03:27:42;34.13;;;16.95;;
10226;SDS011;15634;48.766;2.272;2022-12-07T03:30:13;32.05;;;16.48;;
10226;SDS011;15634;48.766;2.272;2022-12-07T03:32:43;33.55;;;16.55;;
10226;SDS011;15634;48.766;2.272;2022-12-07T03:35:12;32.92;;;16.48;;
10226;SDS011;15634;48.766;2.272;2022-12-07T03:37:43;28.50;;;15.60;;
10226;SDS011;15634;48.766;2.272;2022-12-07T03:40:14;31.05;;;15.80;;
10226;SDS011;15634;48.766;2.272;2022-12-07T03:42:44;31.58;;;16.55;;
10226;SDS011;15634;48.766;2.272;2022-12-07T03:45:11;27.95;;;15.27;;
10226;SDS011;15634;48.766;2.272;2022-12-07T03:47:41;27.73;;;15.48;;
10226;SDS011;15634;48.766;2.272;2022-12-07T03:50:13;29.60;;;15.23;;
10226;SDS011;15634;48.766;2.272;2022-12-07T03:52:42;28.33;;;15.43;;
10226;SDS011;15634;48.766;2.272;2022-12-07T03:55:13;27.77;;;14.93;;
10226;SDS011;15634;48.766;2.272;2022-12-07T03:57:42;32.63;;;15.45;;
10226;SDS011;15634;48.766;2.272;2022-12-07T04:00:10;29.45;;;14.82;;
10226;SDS011;15634;48.766;2.272;2022-12-07T04:02:40;26.02;;;14.07;;
10226;SDS011;15634;48.766;2.272;2022-12-07T04:05:08;26.25;;;14.68;;
10226;SDS011;15634;48.766;2.272;2022-12-07T04:07:35;31.92;;;15.63;;
10226;SDS011;15634;48.766;2.272;2022-12-07T04:10:02;28.75;;;14.57;;
10226;SDS011;15634;48.766;2.272;2022-12-07T04:12:29;28.70;;;14.40;;
10226;SDS011;15634;48.766;2.272;2022-12-07T04:14:55;28.55;;;14.02;;
10226;SDS011;15634;48.766;2.272;2022-12-07T04:17:22;29.38;;;14.70;;
10226;SDS011;15634;48.766;2.272;2022-12-07T04:19:50;27.55;;;14.90;;
10226;SDS011;15634;48.766;2.272;2022-12-07T04:22:16;28.50;;;14.93;;
10226;SDS011;15634;48.766;2.272;2022-12-07T04:24:43;26.17;;;14.07;;
10226;SDS011;15634;48.766;2.272;2022-12-07T04:27:09;28.90;;;15.10;;
10226;SDS011;15634;48.766;2.272;2022-12-07T04:29:36;30.35;;;14.75;;
10226;SDS011;15634;48.766;2.272;2022-12-07T04:32:03;34.33;;;15.43;;
10226;SDS011;15634;48.766;2.272;2022-12-07T04:34:29;27.20;;;14.43;;
10226;SDS011;15634;48.766;2.272;2022-12-07T04:36:57;27.67;;;14.73;;
10226;SDS011;15634;48.766;2.272;2022-12-07T04:39:25;29.10;;;14.77;;
10226;SDS011;15634;48.766;2.272;2022-12-07T04:41:53;29.65;;;14.88;;
10226;SDS011;15634;48.766;2.272;2022-12-07T04:44:20;25.05;;;13.68;;
10226;SDS011;15634;48.766;2.272;2022-12-07T04:46:47;24.42;;;13.60;;
10226;SDS011;15634;48.766;2.272;2022-12-07T04:49:14;24.42;;;12.88;;
10226;SDS011;15634;48.766;2.272;2022-12-07T04:51:42;28.17;;;14.13;;
10226;SDS011;15634;48.766;2.272;2022-12-07T04:54:10;27.15;;;14.25;;
10226;SDS011;15634;48.766;2.272;2022-12-07T04:56:37;27.02;;;13.52;;
10226;SDS011;15634;48.766;2.272;2022-12-07T04:59:04;24.15;;;13.07;;
10226;SDS011;15634;48.766;2.272;2022-12-07T05:01:31;28.83;;;14.20;;
10226;SDS011;15634;48.766;2.272;2022-12-07T05:03:58;27.10;;;14.00;;
10226;SDS011;15634;48.766;2.272;2022-12-07T05:06:24;24.77;;;13.45;;
10226;SDS011;15634;48.766;2.272;2022-12-07T05:08:51;24.67;;;13.52;;
10226;SDS011;15634;48.766;2.272;2022-12-07T05:11:19;24.27;;;12.73;;
10226;SDS011;15634;48.766;2.272;2022-12-07T05:14:03;25.52;;;13.35;;
10226;SDS011;15634;48.766;2.272;2022-12-07T05:16:31;28.70;;;13.52;;
10226;SDS011;15634;48.766;2.272;2022-12-07T05:18:58;29.45;;;12.32;;
10226;SDS011;15634;48.766;2.272;2022-12-07T05:21:24;23.30;;;13.27;;
10226;SDS011;15634;48.766;2.272;2022-12-07T05:23:51;26.17;;;12.88;;
10226;SDS011;15634;48.766;2.272;2022-12-07T05:26:19;21.58;;;12.32;;
10226;SDS011;15634;48.766;2.272;2022-12-07T05:28:49;22.42;;;12.90;;
10226;SDS011;15634;48.766;2.272;2022-12-07T05:31:16;21.73;;;12.95;;
10226;SDS011;15634;48.766;2.272;2022-12-07T05:33:43;24.80;;;12.13;;
10226;SDS011;15634;48.766;2.272;2022-12-07T05:36:09;26.55;;;13.05;;
10226;SDS011;15634;48.766;2.272;2022-12-07T05:38:36;24.15;;;12.65;;
10226;SDS011;15634;48.766;2.272;2022-12-07T05:41:03;26.33;;;13.38;;
10226;SDS011;15634;48.766;2.272;2022-12-07T05:43:32;24.80;;;13.52;;
10226;SDS011;15634;48.766;2.272;2022-12-07T05:45:59;26.70;;;13.77;;
10226;SDS011;15634;48.766;2.272;2022-12-07T05:48:25;29.83;;;14.23;;
10226;SDS011;15634;48.766;2.272;2022-12-07T05:50:52;26.27;;;14.02;;
10226;SDS011;15634;48.766;2.272;2022-12-07T05:53:19;32.72;;;15.15;;
10226;SDS011;15634;48.766;2.272;2022-12-07T05:55:46;25.48;;;14.40;;
10226;SDS011;15634;48.766;2.272;2022-12-07T05:58:12;28.33;;;14.65;;
10226;SDS011;15634;48.766;2.272;2022-12-07T06:01:00;29.00;;;14.93;;
10226;SDS011;15634;48.766;2.272;2022-12-07T06:03:26;30.65;;;15.40;;
10226;SDS011;15634;48.766;2.272;2022-12-07T06:05:53;28.92;;;14.82;;
10226;SDS011;15634;48.766;2.272;2022-12-07T06:08:20;27.90;;;15.60;;
10226;SDS011;15634;48.766;2.272;2022-12-07T06:10:46;28.67;;;14.98;;
10226;SDS011;15634;48.766;2.272;2022-12-07T06:13:35;30.13;;;15.68;;
10226;SDS011;15634;48.766;2.272;2022-12-07T06:16:02;28.63;;;15.05;;
10226;SDS011;15634;48.766;2.272;2022-12-07T06:18:29;33.08;;;17.05;;
10226;SDS011;15634;48.766;2.272;2022-12-07T06:20:56;29.60;;;15.95;;
10226;SDS011;15634;48.766;2.272;2022-12-07T06:23:23;28.98;;;15.35;;
10226;SDS011;15634;48.766;2.272;2022-12-07T06:25:49;23.42;;;12.85;;
10226;SDS011;15634;48.766;2.272;2022-12-07T06:28:16;24.73;;;12.80;;
10226;SDS011;15634;48.766;2.272;2022-12-07T06:30:42;23.20;;;12.32;;
10226;SDS011;15634;48.766;2.272;2022-12-07T06:33:10;24.63;;;12.93;;
10226;SDS011;15634;48.766;2.272;2022-12-07T06:35:37;24.30;;;13.02;;
10226;SDS011;15634;48.766;2.272;2022-12-07T06:38:03;25.17;;;13.25;;
10226;SDS011;15634;48.766;2.272;2022-12-07T06:40:30;23.65;;;13.10;;
10226;SDS011;15634;48.766;2.272;2022-12-07T06:42:57;26.58;;;13.43;;
10226;SDS011;15634;48.766;2.272;2022-12-07T06:45:23;24.52;;;13.00;;
10226;SDS011;15634;48.766;2.272;2022-12-07T06:47:50;23.45;;;14.23;;
10226;SDS011;15634;48.766;2.272;2022-12-07T06:50:18;23.05;;;13.52;;
10226;SDS011;15634;48.766;2.272;2022-12-07T06:52:44;25.23;;;13.73;;
10226;SDS011;15634;48.766;2.272;2022-12-07T06:55:11;24.40;;;13.63;;
10226;SDS011;15634;48.766;2.272;2022-12-07T06:57:37;23.25;;;13.63;;
10226;SDS011;15634;48.766;2.272;2022-12-07T07:00:05;28.75;;;13.85;;
10226;SDS011;15634;48.766;2.272;2022-12-07T07:02:32;25.52;;;13.93;;
10226;SDS011;15634;48.766;2.272;2022-12-07T07:04:59;25.75;;;13.15;;
10226;SDS011;15634;48.766;2.272;2022-12-07T07:07:27;25.40;;;13.23;;
10226;SDS011;15634;48.766;2.272;2022-12-07T07:09:53;29.80;;;14.45;;
10226;SDS011;15634;48.766;2.272;2022-12-07T07:12:20;27.75;;;13.65;;
10226;SDS011;15634;48.766;2.272;2022-12-07T07:14:46;22.77;;;12.35;;
10226;SDS011;15634;48.766;2.272;2022-12-07T07:17:13;28.27;;;14.05;;
10226;SDS011;15634;48.766;2.272;2022-12-07T07:19:40;31.33;;;14.25;;
10226;SDS011;15634;48.766;2.272;2022-12-07T07:22:06;22.42;;;13.23;;
10226;SDS011;15634;48.766;2.272;2022-12-07T07:24:34;29.70;;;13.77;;
10226;SDS011;15634;48.766;2.272;2022-12-07T07:27:01;26.25;;;13.77;;
10226;SDS011;15634;48.766;2.272;2022-12-07T07:29:27;26.90;;;15.15;;
10226;SDS011;15634;48.766;2.272;2022-12-07T07:31:54;25.90;;;14.50;;
10226;SDS011;15634;48.766;2.272;2022-12-07T07:34:21;26.02;;;13.40;;
10226;SDS011;15634;48.766;2.272;2022-12-07T07:36:47;26.20;;;13.75;;
10226;SDS011;15634;48.766;2.272;2022-12-07T07:39:14;25.70;;;14.00;;
10226;SDS011;15634;48.766;2.272;2022-12-07T07:41:42;26.33;;;13.43;;
10226;SDS011;15634;48.766;2.272;2022-12-07T07:44:09;24.30;;;13.00;;
10226;SDS011;15634;48.766;2.272;2022-12-07T07:46:35;26.20;;;13.48;;
10226;SDS011;15634;48.766;2.272;2022-12-07T07:49:02;25.02;;;13.20;;
10226;SDS011;15634;48.766;2.272;2022-12-07T07:51:28;23.40;;;13.35;;
10226;SDS011;15634;48.766;2.272;2022-12-07T07:53:55;27.42;;;13.48;;
10226;SDS011;15634;48.766;2.272;2022-12-07T07:56:22;29.23;;;16.90;;
10226;SDS011;15634;48.766;2.272;2022-12-07T07:58:52;25.83;;;14.32;;
10226;SDS011;15634;48.766;2.272;2022-12-07T08:01:19;29.80;;;15.75;;
10226;SDS011;15634;48.766;2.272;2022-12-07T08:03:46;32.65;;;16.08;;
10226;SDS011;15634;48.766;2.272;2022-12-07T08:06:13;33.88;;;16.50;;
10226;SDS011;15634;48.766;2.272;2022-12-07T08:08:39;35.35;;;14.95;;
10226;SDS011;15634;48.766;2.272;2022-12-07T08:11:06;27.40;;;15.18;;
10226;SDS011;15634;48.766;2.272;2022-12-07T08:13:33;27.92;;;14.98;;
10226;SDS011;15634;48.766;2.272;2022-12-07T08:16:04;27.75;;;13.32;;
10226;SDS011;15634;48.766;2.272;2022-12-07T08:18:34;33.22;;;14.73;;
10226;SDS011;15634;48.766;2.272;2022-12-07T08:21:01;28.95;;;14.68;;
10226;SDS011;15634;48.766;2.272;2022-12-07T08:23:28;29.45;;;14.68;;
10226;SDS011;15634;48.766;2.272;2022-12-07T08:25:55;24.48;;;13.70;;
10226;SDS011;15634;48.766;2.272;2022-12-07T08:28:22;28.17;;;13.15;;
10226;SDS011;15634;48.766;2.272;2022-12-07T08:30:48;27.00;;;12.98;;
10226;SDS011;15634;48.766;2.272;2022-12-07T08:33:16;25.10;;;11.95;;
10226;SDS011;15634;48.766;2.272;2022-12-07T08:35:43;23.55;;;12.07;;
10226;SDS011;15634;48.766;2.272;2022-12-07T08:38:10;21.45;;;11.52;;
10226;SDS011;15634;48.766;2.272;2022-12-07T08:40:36;18.83;;;11.32;;
10226;SDS011;15634;48.766;2.272;2022-12-07T08:43:03;23.67;;;11.73;;
10226;SDS011;15634;48.766;2.272;2022-12-07T08:45:29;22.55;;;13.02;;
10226;SDS011;15634;48.766;2.272;2022-12-07T08:48:01;25.50;;;12.98;;
10226;SDS011;15634;48.766;2.272;2022-12-07T08:50:33;28.77;;;14.57;;
10226;SDS011;15634;48.766;2.272;2022-12-07T08:53:00;31.25;;;15.85;;
10226;SDS011;15634;48.766;2.272;2022-12-07T08:55:27;29.15;;;16.27;;
10226;SDS011;15634;48.766;2.272;2022-12-07T08:57:55;29.73;;;15.68;;
10226;SDS011;15634;48.766;2.272;2022-12-07T09:00:23;22.35;;;11.18;;
10226;SDS011;15634;48.766;2.272;2022-12-07T09:02:50;23.02;;;11.48;;
10226;SDS011;15634;48.766;2.272;2022-12-07T09:05:17;18.67;;;10.95;;
10226;SDS011;15634;48.766;2.272;2022-12-07T09:07:46;20.13;;;10.70;;
10226;SDS011;15634;48.766;2.272;2022-12-07T09:10:15;19.35;;;10.98;;
10226;SDS011;15634;48.766;2.272;2022-12-07T09:12:42;27.98;;;12.40;;
10226;SDS011;15634;48.766;2.272;2022-12-07T09:15:09;18.85;;;11.45;;
10226;SDS011;15634;48.766;2.272;2022-12-07T09:17:35;17.65;;;9.95;;
10226;SDS011;15634;48.766;2.272;2022-12-07T09:20:02;19.88;;;9.27;;
10226;SDS011;15634;48.766;2.272;2022-12-07T09:22:29;17.77;;;9.80;;
10226;SDS011;15634;48.766;2.272;2022-12-07T09:24:58;16.17;;;8.57;;
10226;SDS011;15634;48.766;2.272;2022-12-07T09:27:24;19.05;;;8.65;;
10226;SDS011;15634;48.766;2.272;2022-12-07T09:29:51;15.73;;;9.38;;
10226;SDS011;15634;48.766;2.272;2022-12-07T09:32:18;16.30;;;8.52;;
10226;SDS011;15634;48.766;2.272;2022-12-07T09:34:44;18.15;;;9.25;;
10226;SDS011;15634;48.766;2.272;2022-12-07T09:37:11;18.83;;;9.38;;
10226;SDS011;15634;48.766;2.272;2022-12-07T09:39:37;17.33;;;8.95;;
10226;SDS011;15634;48.766;2.272;2022-12-07T09:42:06;16.05;;;8.55;;
10226;SDS011;15634;48.766;2.272;2022-12-07T09:44:34;14.18;;;8.13;;
10226;SDS011;15634;48.766;2.272;2022-12-07T09:47:01;13.57;;;8.30;;
10226;SDS011;15634;48.766;2.272;2022-12-07T09:49:28;15.20;;;8.68;;
10226;SDS011;15634;48.766;2.272;2022-12-07T09:52:00;16.08;;;9.48;;
10226;SDS011;15634;48.766;2.272;2022-12-07T09:54:29;16.00;;;9.50;;
10226;SDS011;15634;48.766;2.272;2022-12-07T09:56:56;14.85;;;8.88;;
10226;SDS011;15634;48.766;2.272;2022-12-07T09:59:24;15.70;;;9.18;;
10226;SDS011;15634;48.766;2.272;2022-12-07T10:01:51;15.07;;;9.00;;
10226;SDS011;15634;48.766;2.272;2022-12-07T10:04:18;19.65;;;10.10;;
10226;SDS011;15634;48.766;2.272;2022-12-07T10:06:47;16.67;;;9.32;;
10226;SDS011;15634;48.766;2.272;2022-12-07T10:09:16;15.52;;;9.38;;
10226;SDS011;15634;48.766;2.272;2022-12-07T10:12:00;15.70;;;8.73;;
10226;SDS011;15634;48.766;2.272;2022-12-07T10:14:29;16.55;;;9.02;;
10226;SDS011;15634;48.766;2.272;2022-12-07T10:16:57;16.85;;;8.75;;
10226;SDS011;15634;48.766;2.272;2022-12-07T10:19:25;14.10;;;9.15;;
10226;SDS011;15634;48.766;2.272;2022-12-07T10:21:59;17.83;;;8.45;;
10226;SDS011;15634;48.766;2.272;2022-12-07T10:24:31;14.13;;;8.07;;
10226;SDS011;15634;48.766;2.272;2022-12-07T10:26:58;13.70;;;7.50;;
10226;SDS011;15634;48.766;2.272;2022-12-07T10:29:28;14.10;;;7.88;;
10226;SDS011;15634;48.766;2.272;2022-12-07T10:31:58;18.63;;;8.57;;
10226;SDS011;15634;48.766;2.272;2022-12-07T10:34:26;16.25;;;8.10;;
10226;SDS011;15634;48.766;2.272;2022-12-07T10:37:13;15.95;;;7.72;;
10226;SDS011;15634;48.766;2.272;2022-12-07T10:39:42;19.23;;;8.02;;
10226;SDS011;15634;48.766;2.272;2022-12-07T10:42:17;14.93;;;7.80;;
10226;SDS011;15634;48.766;2.272;2022-12-07T10:44:46;14.02;;;6.93;;
10226;SDS011;15634;48.766;2.272;2022-12-07T10:50:07;12.15;;;7.43;;
10226;SDS011;15634;48.766;2.272;2022-12-07T10:52:46;18.05;;;7.97;;
10226;SDS011;15634;48.766;2.272;2022-12-07T10:55:21;14.55;;;7.53;;
10226;SDS011;15634;48.766;2.272;2022-12-07T10:57:58;16.02;;;8.20;;
10226;SDS011;15634;48.766;2.272;2022-12-07T11:00:31;16.65;;;8.43;;
10226;SDS011;15634;48.766;2.272;2022-12-07T11:03:12;14.32;;;7.60;;
10226;SDS011;15634;48.766;2.272;2022-12-07T11:05:48;14.05;;;8.02;;
10226;SDS011;15634;48.766;2.272;2022-12-07T11:08:21;12.85;;;7.25;;
10226;SDS011;15634;48.766;2.272;2022-12-07T11:10:58;13.52;;;7.63;;
10226;SDS011;15634;48.766;2.272;2022-12-07T11:13:29;14.07;;;7.32;;
10226;SDS011;15634;48.766;2.272;2022-12-07T11:18:54;14.02;;;7.40;;
10226;SDS011;15634;48.766;2.272;2022-12-07T11:21:27;18.15;;;7.28;;
10226;SDS011;15634;48.766;2.272;2022-12-07T11:24:01;14.27;;;6.47;;
10226;SDS011;15634;48.766;2.272;2022-12-07T11:29:14;11.98;;;6.90;;
10226;SDS011;15634;48.766;2.272;2022-12-07T11:31:52;7.80;;;5.55;;
10226;SDS011;15634;48.766;2.272;2022-12-07T11:34:25;13.63;;;6.60;;
10226;SDS011;15634;48.766;2.272;2022-12-07T11:36:59;16.63;;;6.65;;
10226;SDS011;15634;48.766;2.272;2022-12-07T11:39:30;13.38;;;6.88;;
10226;SDS011;15634;48.766;2.272;2022-12-07T11:42:01;13.77;;;7.95;;
10226;SDS011;15634;48.766;2.272;2022-12-07T11:44:31;15.43;;;8.25;;
10226;SDS011;15634;48.766;2.272;2022-12-07T11:47:05;10.57;;;6.88;;
10226;SDS011;15634;48.766;2.272;2022-12-07T11:49:37;14.38;;;7.72;;
10226;SDS011;15634;48.766;2.272;2022-12-07T11:52:09;14.77;;;8.20;;
10226;SDS011;15634;48.766;2.272;2022-12-07T11:54:43;15.70;;;6.97;;
10226;SDS011;15634;48.766;2.272;2022-12-07T11:57:12;12.10;;;6.78;;
10226;SDS011;15634;48.766;2.272;2022-12-07T11:59:42;11.93;;;6.57;;
10226;SDS011;15634;48.766;2.272;2022-12-07T12:02:14;9.60;;;6.35;;
10226;SDS011;15634;48.766;2.272;2022-12-07T12:04:46;17.70;;;7.10;;
10226;SDS011;15634;48.766;2.272;2022-12-07T12:07:17;14.60;;;7.45;;
10226;SDS011;15634;48.766;2.272;2022-12-07T12:09:48;13.48;;;6.18;;
10226;SDS011;15634;48.766;2.272;2022-12-07T12:12:21;12.15;;;6.40;;
10226;SDS011;15634;48.766;2.272;2022-12-07T12:15:16;10.27;;;5.72;;
10226;SDS011;15634;48.766;2.272;2022-12-07T12:17:54;12.57;;;5.70;;
10226;SDS011;15634;48.766;2.272;2022-12-07T12:20:28;10.82;;;6.00;;
10226;SDS011;15634;48.766;2.272;2022-12-07T12:22:58;13.60;;;6.75;;
10226;SDS011;15634;48.766;2.272;2022-12-07T12:25:28;16.23;;;7.78;;
10226;SDS011;15634;48.766;2.272;2022-12-07T12:27:57;13.65;;;6.82;;
10226;SDS011;15634;48.766;2.272;2022-12-07T12:30:25;16.13;;;8.50;;
10226;SDS011;15634;48.766;2.272;2022-12-07T12:33:03;13.50;;;6.80;;
10226;SDS011;15634;48.766;2.272;2022-12-07T12:35:32;14.52;;;7.05;;
10226;SDS011;15634;48.766;2.272;2022-12-07T12:40:52;13.82;;;7.32;;
10226;SDS011;15634;48.766;2.272;2022-12-07T12:46:38;19.60;;;8.13;;
10226;SDS011;15634;48.766;2.272;2022-12-07T12:55:21;18.23;;;9.63;;
10226;SDS011;15634;48.766;2.272;2022-12-07T13:04:14;14.60;;;9.15;;
10226;SDS011;15634;48.766;2.272;2022-12-07T13:06:45;20.00;;;9.50;;
10226;SDS011;15634;48.766;2.272;2022-12-07T13:09:17;16.67;;;10.18;;
10226;SDS011;15634;48.766;2.272;2022-12-07T13:11:47;19.30;;;9.85;;
10226;SDS011;15634;48.766;2.272;2022-12-07T13:17:08;20.27;;;9.88;;
10226;SDS011;15634;48.766;2.272;2022-12-07T13:22:39;18.33;;;9.60;;
10226;SDS011;15634;48.766;2.272;2022-12-07T13:25:09;19.38;;;9.50;;
10226;SDS011;15634;48.766;2.272;2022-12-07T13:27:37;22.20;;;9.68;;
10226;SDS011;15634;48.766;2.272;2022-12-07T13:30:09;20.95;;;10.43;;
10226;SDS011;15634;48.766;2.272;2022-12-07T13:32:40;20.42;;;9.85;;
10226;SDS011;15634;48.766;2.272;2022-12-07T13:37:56;17.90;;;9.75;;
10226;SDS011;15634;48.766;2.272;2022-12-07T13:40:23;20.30;;;10.48;;
10226;SDS011;15634;48.766;2.272;2022-12-07T13:42:56;16.15;;;8.88;;
10226;SDS011;15634;48.766;2.272;2022-12-07T13:48:13;17.92;;;9.07;;
10226;SDS011;15634;48.766;2.272;2022-12-07T13:50:42;21.15;;;10.38;;
10226;SDS011;15634;48.766;2.272;2022-12-07T13:53:12;18.70;;;9.20;;
10226;SDS011;15634;48.766;2.272;2022-12-07T13:55:44;19.98;;;9.05;;
10226;SDS011;15634;48.766;2.272;2022-12-07T13:58:11;18.38;;;9.05;;
10226;SDS011;15634;48.766;2.272;2022-12-07T14:00:39;16.75;;;8.82;;
10226;SDS011;15634;48.766;2.272;2022-12-07T14:03:20;16.15;;;8.77;;
10226;SDS011;15634;48.766;2.272;2022-12-07T14:06:03;17.42;;;9.57;;
10226;SDS011;15634;48.766;2.272;2022-12-07T14:08:38;17.15;;;10.07;;
10226;SDS011;15634;48.766;2.272;2022-12-07T14:11:04;18.75;;;10.75;;
10226;SDS011;15634;48.766;2.272;2022-12-07T14:13:33;21.45;;;10.27;;
10226;SDS011;15634;48.766;2.272;2022-12-07T14:16:01;17.17;;;9.45;;
10226;SDS011;15634;48.766;2.272;2022-12-07T14:18:30;20.25;;;10.32;;
10226;SDS011;15634;48.766;2.272;2022-12-07T14:21:04;18.92;;;10.32;;
10226;SDS011;15634;48.766;2.272;2022-12-07T14:23:32;17.88;;;10.40;;
10226;SDS011;15634;48.766;2.272;2022-12-07T14:26:07;23.55;;;10.27;;
10226;SDS011;15634;48.766;2.272;2022-12-07T14:28:35;19.15;;;10.82;;
10226;SDS011;15634;48.766;2.272;2022-12-07T14:31:03;19.83;;;11.05;;
10226;SDS011;15634;48.766;2.272;2022-12-07T14:33:30;18.52;;;10.25;;
10226;SDS011;15634;48.766;2.272;2022-12-07T14:35:57;20.30;;;10.50;;
10226;SDS011;15634;48.766;2.272;2022-12-07T14:38:24;19.38;;;10.55;;
10226;SDS011;15634;48.766;2.272;2022-12-07T14:40:51;17.35;;;10.27;;
10226;SDS011;15634;48.766;2.272;2022-12-07T14:43:20;20.63;;;10.00;;
10226;SDS011;15634;48.766;2.272;2022-12-07T14:45:46;15.80;;;9.90;;
10226;SDS011;15634;48.766;2.272;2022-12-07T14:48:14;17.88;;;10.05;;
10226;SDS011;15634;48.766;2.272;2022-12-07T14:50:42;18.73;;;9.80;;
10226;SDS011;15634;48.766;2.272;2022-12-07T14:53:11;15.23;;;9.90;;
10226;SDS011;15634;48.766;2.272;2022-12-07T14:55:39;16.48;;;9.95;;
10226;SDS011;15634;48.766;2.272;2022-12-07T14:58:06;21.35;;;10.30;;
10226;SDS011;15634;48.766;2.272;2022-12-07T15:00:35;18.33;;;10.30;;
10226;SDS011;15634;48.766;2.272;2022-12-07T15:03:02;16.25;;;9.55;;
10226;SDS011;15634;48.766;2.272;2022-12-07T15:05:29;18.88;;;9.98;;
10226;SDS011;15634;48.766;2.272;2022-12-07T15:07:55;18.48;;;10.05;;
10226;SDS011;15634;48.766;2.272;2022-12-07T15:10:24;18.05;;;9.63;;
10226;SDS011;15634;48.766;2.272;2022-12-07T15:12:55;18.38;;;9.88;;
10226;SDS011;15634;48.766;2.272;2022-12-07T15:15:43;16.40;;;9.82;;
10226;SDS011;15634;48.766;2.272;2022-12-07T15:18:09;18.98;;;11.40;;
10226;SDS011;15634;48.766;2.272;2022-12-07T15:20:36;26.70;;;10.98;;